sensor_id;sensor_type;location;lat;lon;timestamp;pressure;altitude;pressure_sealevel;temperature;humidity
41513;BME280;27244;59.940;30.280;2023-02-28T00:01:19;101087.81;;;22.88;25.65
41513;BME280;27244;59.940;30.280;2023-02-28T00:03:48;101084.19;;;22.87;25.54
41513;BME280;27244;59.940;30.280;2023-02-28T00:06:15;101084.56;;;22.89;25.64
41513;BME280;27244;59.940;30.280;2023-02-28T00:08:42;101076.22;;;22.86;25.63
41513;BME280;27244;59.940;30.280;2023-02-28T00:11:11;101080.16;;;22.88;25.63
41513;BME280;27244;59.940;30.280;2023-02-28T00:13:40;101072.88;;;22.91;25.57
41513;BME280;27244;59.940;30.280;2023-02-28T00:16:10;101060.91;;;22.87;25.73
41513;BME280;27244;59.940;30.280;2023-02-28T00:18:38;101078.22;;;22.85;25.86
41513;BME280;27244;59.940;30.280;2023-02-28T00:21:07;101048.56;;;22.81;25.66
41513;BME280;27244;59.940;30.280;2023-02-28T00:23:35;101053.31;;;22.84;26.17
41513;BME280;27244;59.940;30.280;2023-02-28T00:26:02;101060.97;;;22.83;25.97
41513;BME280;27244;59.940;30.280;2023-02-28T00:28:29;101056.59;;;22.82;25.86
41513;BME280;27244;59.940;30.280;2023-02-28T00:30:58;101046.56;;;22.81;26.02
41513;BME280;27244;59.940;30.280;2023-02-28T00:33:26;101044.53;;;22.82;25.66
41513;BME280;27244;59.940;30.280;2023-02-28T00:36:02;101047.69;;;22.84;25.78
41513;BME280;27244;59.940;30.280;2023-02-28T00:38:31;101049.72;;;22.83;25.65
41513;BME280;27244;59.940;30.280;2023-02-28T00:41:00;101044.94;;;22.80;25.71
41513;BME280;27244;59.940;30.280;2023-02-28T00:43:31;101044.09;;;22.83;25.68
41513;BME280;27244;59.940;30.280;2023-02-28T00:46:03;101039.41;;;22.77;25.64
41513;BME280;27244;59.940;30.280;2023-02-28T00:48:30;101041.34;;;22.80;25.70
41513;BME280;27244;59.940;30.280;2023-02-28T00:50:57;101049.78;;;22.80;25.66
41513;BME280;27244;59.940;30.280;2023-02-28T00:53:24;101029.38;;;22.76;25.68
41513;BME280;27244;59.940;30.280;2023-02-28T00:55:53;101030.09;;;22.80;25.60
41513;BME280;27244;59.940;30.280;2023-02-28T00:58:21;101012.25;;;22.67;25.31
41513;BME280;27244;59.940;30.280;2023-02-28T01:00:48;101011.34;;;22.73;25.65
41513;BME280;27244;59.940;30.280;2023-02-28T01:03:16;101015.31;;;22.76;25.67
41513;BME280;27244;59.940;30.280;2023-02-28T01:05:43;101014.00;;;22.80;25.66
41513;BME280;27244;59.940;30.280;2023-02-28T01:08:10;101016.09;;;22.76;25.68
41513;BME280;27244;59.940;30.280;2023-02-28T01:10:37;101012.00;;;22.81;25.67
41513;BME280;27244;59.940;30.280;2023-02-28T01:13:07;101014.41;;;22.82;25.67
41513;BME280;27244;59.940;30.280;2023-02-28T01:15:36;101009.19;;;22.81;25.62
41513;BME280;27244;59.940;30.280;2023-02-28T01:18:04;101007.19;;;22.81;25.63
41513;BME280;27244;59.940;30.280;2023-02-28T01:20:31;101005.56;;;22.80;25.65
41513;BME280;27244;59.940;30.280;2023-02-28T01:22:58;100992.03;;;22.75;25.71
41513;BME280;27244;59.940;30.280;2023-02-28T01:25:26;101010.41;;;22.80;25.82
41513;BME280;27244;59.940;30.280;2023-02-28T01:27:53;101000.41;;;22.79;25.56
41513;BME280;27244;59.940;30.280;2023-02-28T01:30:21;100993.13;;;22.81;25.55
41513;BME280;27244;59.940;30.280;2023-02-28T01:32:48;100982.28;;;22.80;25.63
41513;BME280;27244;59.940;30.280;2023-02-28T01:35:17;100977.44;;;22.80;25.47
41513;BME280;27244;59.940;30.280;2023-02-28T01:37:44;100977.91;;;22.79;25.66
41513;BME280;27244;59.940;30.280;2023-02-28T01:40:13;100968.66;;;22.78;25.53
41513;BME280;27244;59.940;30.280;2023-02-28T01:42:40;100983.94;;;22.77;25.92
41513;BME280;27244;59.940;30.280;2023-02-28T01:45:19;100973.41;;;22.81;25.79
41513;BME280;27244;59.940;30.280;2023-02-28T01:47:50;100963.13;;;22.75;25.97
41513;BME280;27244;59.940;30.280;2023-02-28T01:50:21;100967.94;;;22.74;26.00
41513;BME280;27244;59.940;30.280;2023-02-28T01:52:50;100954.72;;;22.91;25.88
41513;BME280;27244;59.940;30.280;2023-02-28T01:55:18;100962.31;;;22.74;26.00
41513;BME280;27244;59.940;30.280;2023-02-28T01:57:51;100953.09;;;22.74;26.19
41513;BME280;27244;59.940;30.280;2023-02-28T02:00:22;100944.75;;;22.67;26.29
41513;BME280;27244;59.940;30.280;2023-02-28T02:02:54;100958.34;;;22.72;26.04
41513;BME280;27244;59.940;30.280;2023-02-28T02:05:24;100954.41;;;22.66;25.87
41513;BME280;27244;59.940;30.280;2023-02-28T02:07:55;100956.75;;;22.71;25.76
41513;BME280;27244;59.940;30.280;2023-02-28T02:10:28;100951.50;;;22.73;25.85
41513;BME280;27244;59.940;30.280;2023-02-28T02:13:17;100948.69;;;22.73;25.81
41513;BME280;27244;59.940;30.280;2023-02-28T02:15:53;100952.28;;;22.73;25.72
41513;BME280;27244;59.940;30.280;2023-02-28T02:18:29;100951.88;;;22.75;25.76
41513;BME280;27244;59.940;30.280;2023-02-28T02:21:18;100948.97;;;22.78;25.85
41513;BME280;27244;59.940;30.280;2023-02-28T02:24:13;100959.34;;;22.81;25.65
41513;BME280;27244;59.940;30.280;2023-02-28T02:26:58;100949.41;;;22.77;25.79
41513;BME280;27244;59.940;30.280;2023-02-28T02:33:03;100942.56;;;22.78;25.67
41513;BME280;27244;59.940;30.280;2023-02-28T02:35:40;100933.09;;;22.68;25.77
41513;BME280;27244;59.940;30.280;2023-02-28T02:38:15;100944.34;;;22.68;25.66
41513;BME280;27244;59.940;30.280;2023-02-28T02:40:54;100946.31;;;22.71;25.84
41513;BME280;27244;59.940;30.280;2023-02-28T02:43:25;100953.16;;;22.70;25.49
41513;BME280;27244;59.940;30.280;2023-02-28T02:46:00;100944.34;;;22.68;25.84
41513;BME280;27244;59.940;30.280;2023-02-28T02:48:31;100940.81;;;22.64;25.72
41513;BME280;27244;59.940;30.280;2023-02-28T02:51:07;100930.41;;;22.61;25.95
41513;BME280;27244;59.940;30.280;2023-02-28T02:53:42;100937.63;;;22.62;25.94
41513;BME280;27244;59.940;30.280;2023-02-28T02:56:15;100925.66;;;22.58;25.70
41513;BME280;27244;59.940;30.280;2023-02-28T02:58:49;100935.91;;;22.68;25.70
41513;BME280;27244;59.940;30.280;2023-02-28T03:01:20;100926.75;;;22.64;25.80
41513;BME280;27244;59.940;30.280;2023-02-28T03:03:56;100913.91;;;22.63;25.55
41513;BME280;27244;59.940;30.280;2023-02-28T03:06:26;100915.03;;;22.66;25.48
41513;BME280;27244;59.940;30.280;2023-02-28T03:08:53;100899.03;;;22.63;25.62
41513;BME280;27244;59.940;30.280;2023-02-28T03:11:22;100907.91;;;22.61;25.66
41513;BME280;27244;59.940;30.280;2023-02-28T03:13:57;100891.28;;;22.70;25.52
41513;BME280;27244;59.940;30.280;2023-02-28T03:16:34;100892.88;;;22.71;25.60
41513;BME280;27244;59.940;30.280;2023-02-28T03:19:17;100907.28;;;22.73;25.49
41513;BME280;27244;59.940;30.280;2023-02-28T03:21:56;100887.25;;;22.71;25.54
41513;BME280;27244;59.940;30.280;2023-02-28T03:24:32;100892.88;;;22.71;25.45
41513;BME280;27244;59.940;30.280;2023-02-28T03:27:06;100897.72;;;22.71;25.69
41513;BME280;27244;59.940;30.280;2023-02-28T03:29:39;100893.00;;;22.64;25.64
41513;BME280;27244;59.940;30.280;2023-02-28T03:32:12;100866.25;;;22.56;25.56
41513;BME280;27244;59.940;30.280;2023-02-28T03:34:51;100876.28;;;22.57;25.57
41513;BME280;27244;59.940;30.280;2023-02-28T03:37:25;100899.47;;;22.61;26.02
41513;BME280;27244;59.940;30.280;2023-02-28T03:39:58;100901.06;;;22.62;25.97
41513;BME280;27244;59.940;30.280;2023-02-28T03:42:26;100890.25;;;22.80;25.71
41513;BME280;27244;59.940;30.280;2023-02-28T03:44:57;100899.84;;;22.63;26.00
41513;BME280;27244;59.940;30.280;2023-02-28T03:47:28;100899.91;;;22.60;26.01
41513;BME280;27244;59.940;30.280;2023-02-28T03:49:57;100897.53;;;22.58;26.02
41513;BME280;27244;59.940;30.280;2023-02-28T03:52:32;100885.41;;;22.61;26.02
41513;BME280;27244;59.940;30.280;2023-02-28T03:55:02;100894.38;;;22.56;26.01
41513;BME280;27244;59.940;30.280;2023-02-28T03:57:38;100885.06;;;22.59;26.05
41513;BME280;27244;59.940;30.280;2023-02-28T04:00:12;100882.31;;;22.55;25.87
41513;BME280;27244;59.940;30.280;2023-02-28T04:02:41;100885.94;;;22.56;25.55
41513;BME280;27244;59.940;30.280;2023-02-28T04:05:08;100886.34;;;22.54;25.82
41513;BME280;27244;59.940;30.280;2023-02-28T04:07:37;100887.94;;;22.55;25.93
41513;BME280;27244;59.940;30.280;2023-02-28T04:10:05;100875.63;;;22.49;25.73
41513;BME280;27244;59.940;30.280;2023-02-28T04:12:34;100884.34;;;22.55;25.65
41513;BME280;27244;59.940;30.280;2023-02-28T04:15:01;100887.94;;;22.55;25.88
41513;BME280;27244;59.940;30.280;2023-02-28T04:17:28;100894.38;;;22.56;25.70
41513;BME280;27244;59.940;30.280;2023-02-28T04:19:55;100902.00;;;22.55;25.60
41513;BME280;27244;59.940;30.280;2023-02-28T04:22:23;100894.38;;;22.56;25.68
41513;BME280;27244;59.940;30.280;2023-02-28T04:24:53;100892.34;;;22.56;25.83
41513;BME280;27244;59.940;30.280;2023-02-28T04:27:21;100889.09;;;22.58;25.53
41513;BME280;27244;59.940;30.280;2023-02-28T04:29:48;100887.59;;;22.53;25.50
41513;BME280;27244;59.940;30.280;2023-02-28T04:32:15;100895.25;;;22.53;25.62
41513;BME280;27244;59.940;30.280;2023-02-28T04:34:42;100895.16;;;22.56;25.71
41513;BME280;27244;59.940;30.280;2023-02-28T04:37:09;100897.59;;;22.54;25.87
41513;BME280;27244;59.940;30.280;2023-02-28T04:39:36;100894.44;;;22.52;25.71
41513;BME280;27244;59.940;30.280;2023-02-28T04:42:05;100900.41;;;22.54;26.06
41513;BME280;27244;59.940;30.280;2023-02-28T04:44:32;100885.56;;;22.54;25.84
41513;BME280;27244;59.940;30.280;2023-02-28T04:46:59;100873.63;;;22.50;26.01
41513;BME280;27244;59.940;30.280;2023-02-28T04:49:26;100866.41;;;22.49;25.83
41513;BME280;27244;59.940;30.280;2023-02-28T04:51:55;100856.75;;;22.50;25.79
41513;BME280;27244;59.940;30.280;2023-02-28T04:54:22;100870.00;;;22.49;25.76
41513;BME280;27244;59.940;30.280;2023-02-28T04:56:50;100889.25;;;22.51;25.74
41513;BME280;27244;59.940;30.280;2023-02-28T04:59:18;100877.19;;;22.50;25.96
41513;BME280;27244;59.940;30.280;2023-02-28T05:01:47;100860.56;;;22.40;25.85
41513;BME280;27244;59.940;30.280;2023-02-28T05:04:14;100863.22;;;22.47;26.08
41513;BME280;27244;59.940;30.280;2023-02-28T05:06:42;100867.34;;;22.42;26.13
41513;BME280;27244;59.940;30.280;2023-02-28T05:09:09;100866.81;;;22.47;25.95
41513;BME280;27244;59.940;30.280;2023-02-28T05:11:37;100862.94;;;22.41;26.47
41513;BME280;27244;59.940;30.280;2023-02-28T05:14:06;100880.09;;;22.47;26.19
41513;BME280;27244;59.940;30.280;2023-02-28T05:16:35;100876.91;;;22.45;25.97
41513;BME280;27244;59.940;30.280;2023-02-28T05:19:02;100885.69;;;22.47;25.93
41513;BME280;27244;59.940;30.280;2023-02-28T05:21:30;100900.56;;;22.47;25.92
41513;BME280;27244;59.940;30.280;2023-02-28T05:23:59;100877.41;;;22.40;25.82
41513;BME280;27244;59.940;30.280;2023-02-28T05:26:27;100871.38;;;22.41;25.93
41513;BME280;27244;59.940;30.280;2023-02-28T05:28:55;100881.34;;;22.46;25.76
41513;BME280;27244;59.940;30.280;2023-02-28T05:31:22;100864.47;;;22.46;25.86
41513;BME280;27244;59.940;30.280;2023-02-28T05:33:51;100871.66;;;22.47;26.10
41513;BME280;27244;59.940;30.280;2023-02-28T05:36:18;100869.28;;;22.45;26.02
41513;BME280;27244;59.940;30.280;2023-02-28T05:38:46;100878.94;;;22.44;25.93
41513;BME280;27244;59.940;30.280;2023-02-28T05:41:14;100880.16;;;22.43;26.25
41513;BME280;27244;59.940;30.280;2023-02-28T05:43:41;100881.41;;;22.42;26.38
41513;BME280;27244;59.940;30.280;2023-02-28T05:46:10;100885.78;;;22.43;26.14
41513;BME280;27244;59.940;30.280;2023-02-28T05:48:39;100892.66;;;22.42;26.13
41513;BME280;27244;59.940;30.280;2023-02-28T05:51:09;100893.47;;;22.39;26.18
41513;BME280;27244;59.940;30.280;2023-02-28T05:53:36;100893.47;;;22.39;26.31
41513;BME280;27244;59.940;30.280;2023-02-28T05:56:04;100911.94;;;22.40;26.42
41513;BME280;27244;59.940;30.280;2023-02-28T05:58:31;100901.16;;;22.39;26.30
41513;BME280;27244;59.940;30.280;2023-02-28T06:01:00;100914.75;;;22.40;26.29
41513;BME280;27244;59.940;30.280;2023-02-28T06:03:27;100913.09;;;22.43;26.24
41513;BME280;27244;59.940;30.280;2023-02-28T06:05:54;100912.25;;;22.46;26.26
41513;BME280;27244;59.940;30.280;2023-02-28T06:08:22;100918.16;;;22.51;26.39
41513;BME280;27244;59.940;30.280;2023-02-28T06:10:49;100936.97;;;22.54;26.33
41513;BME280;27244;59.940;30.280;2023-02-28T06:13:16;100926.09;;;22.56;26.35
41513;BME280;27244;59.940;30.280;2023-02-28T06:15:43;100943.25;;;22.62;26.37
41513;BME280;27244;59.940;30.280;2023-02-28T06:18:10;100945.19;;;22.65;26.51
41513;BME280;27244;59.940;30.280;2023-02-28T06:20:37;100946.78;;;22.66;26.62
41513;BME280;27244;59.940;30.280;2023-02-28T06:23:04;100956.75;;;22.71;26.56
41513;BME280;27244;59.940;30.280;2023-02-28T06:25:33;100962.75;;;22.73;26.73
41513;BME280;27244;59.940;30.280;2023-02-28T06:28:00;100947.16;;;22.68;26.76
41513;BME280;27244;59.940;30.280;2023-02-28T06:30:27;100949.06;;;22.75;26.84
41513;BME280;27244;59.940;30.280;2023-02-28T06:32:56;100947.03;;;22.75;27.02
41513;BME280;27244;59.940;30.280;2023-02-28T06:35:23;100955.03;;;22.77;27.26
41513;BME280;27244;59.940;30.280;2023-02-28T06:37:50;100960.22;;;22.78;27.04
41513;BME280;27244;59.940;30.280;2023-02-28T06:40:17;100970.22;;;22.79;27.01
41513;BME280;27244;59.940;30.280;2023-02-28T06:42:46;100971.81;;;22.80;27.21
41513;BME280;27244;59.940;30.280;2023-02-28T06:45:12;100987.09;;;22.79;27.08
41513;BME280;27244;59.940;30.280;2023-02-28T06:47:41;100988.69;;;22.80;27.20
41513;BME280;27244;59.940;30.280;2023-02-28T06:50:11;100995.91;;;22.81;27.23
41513;BME280;27244;59.940;30.280;2023-02-28T06:52:38;101009.19;;;22.81;27.33
41513;BME280;27244;59.940;30.280;2023-02-28T06:55:06;101014.41;;;22.82;27.38
41513;BME280;27244;59.940;30.280;2023-02-28T06:57:35;101024.41;;;22.83;27.26
41513;BME280;27244;59.940;30.280;2023-02-28T07:00:06;101044.47;;;22.85;27.35
41513;BME280;27244;59.940;30.280;2023-02-28T07:02:34;101024.84;;;22.82;27.43
41513;BME280;27244;59.940;30.280;2023-02-28T07:05:01;101026.41;;;22.83;27.51
41513;BME280;27244;59.940;30.280;2023-02-28T07:07:28;101035.22;;;22.85;27.41
41513;BME280;27244;59.940;30.280;2023-02-28T07:09:55;101048.84;;;22.86;27.58
41513;BME280;27244;59.940;30.280;2023-02-28T07:12:22;101058.00;;;22.90;27.75
41513;BME280;27244;59.940;30.280;2023-02-28T07:14:49;101060.47;;;22.88;27.65
41513;BME280;27244;59.940;30.280;2023-02-28T07:17:17;101055.94;;;22.94;27.67
41513;BME280;27244;59.940;30.280;2023-02-28T07:19:44;101067.31;;;22.87;27.60
41513;BME280;27244;59.940;30.280;2023-02-28T07:22:17;101053.56;;;22.93;27.71
41513;BME280;27244;59.940;30.280;2023-02-28T07:24:47;101055.84;;;22.98;27.72
41513;BME280;27244;59.940;30.280;2023-02-28T07:27:14;101065.53;;;22.97;27.77
41513;BME280;27244;59.940;30.280;2023-02-28T07:29:49;101031.19;;;22.86;27.90
41513;BME280;27244;59.940;30.280;2023-02-28T07:32:17;101055.06;;;22.97;27.91
41513;BME280;27244;59.940;30.280;2023-02-28T07:34:45;101054.34;;;22.93;28.00
41513;BME280;27244;59.940;30.280;2023-02-28T07:37:12;101053.50;;;22.96;27.96
41513;BME280;27244;59.940;30.280;2023-02-28T07:39:39;101059.91;;;22.97;27.85
41513;BME280;27244;59.940;30.280;2023-02-28T07:42:07;101047.50;;;22.94;27.96
41513;BME280;27244;59.940;30.280;2023-02-28T07:44:38;101065.47;;;23.00;27.82
41513;BME280;27244;59.940;30.280;2023-02-28T07:47:07;101051.81;;;22.99;27.95
41513;BME280;27244;59.940;30.280;2023-02-28T07:49:36;101042.97;;;23.00;27.97
41513;BME280;27244;59.940;30.280;2023-02-28T07:52:07;101045.41;;;22.98;27.87
41513;BME280;27244;59.940;30.280;2023-02-28T07:54:36;101047.72;;;23.03;28.28
41513;BME280;27244;59.940;30.280;2023-02-28T07:57:03;101053.69;;;23.05;29.51
41513;BME280;27244;59.940;30.280;2023-02-28T07:59:30;101060.78;;;23.14;28.65
41513;BME280;27244;59.940;30.280;2023-02-28T08:01:57;101052.59;;;23.19;28.32
41513;BME280;27244;59.940;30.280;2023-02-28T08:04:25;101049.38;;;23.21;28.19
41513;BME280;27244;59.940;30.280;2023-02-28T08:06:54;101064.16;;;23.25;28.10
41513;BME280;27244;59.940;30.280;2023-02-28T08:09:21;101051.25;;;23.27;28.15
41513;BME280;27244;59.940;30.280;2023-02-28T08:11:48;101061.56;;;23.34;28.26
41513;BME280;27244;59.940;30.280;2023-02-28T08:14:15;101048.19;;;23.38;28.16
41513;BME280;27244;59.940;30.280;2023-02-28T08:16:43;101049.00;;;23.38;28.17
41513;BME280;27244;59.940;30.280;2023-02-28T08:19:10;101061.47;;;23.37;28.18
41513;BME280;27244;59.940;30.280;2023-02-28T08:21:37;101057.78;;;23.44;28.05
41513;BME280;27244;59.940;30.280;2023-02-28T08:24:07;101069.38;;;23.46;28.15
41513;BME280;27244;59.940;30.280;2023-02-28T08:26:34;101088.22;;;23.49;28.00
41513;BME280;27244;59.940;30.280;2023-02-28T08:29:01;101090.22;;;23.48;28.09
41513;BME280;27244;59.940;30.280;2023-02-28T08:31:28;101075.81;;;23.46;28.26
41513;BME280;27244;59.940;30.280;2023-02-28T08:33:54;101090.59;;;23.50;28.19
41513;BME280;27244;59.940;30.280;2023-02-28T08:36:25;101077.66;;;23.53;28.25
41513;BME280;27244;59.940;30.280;2023-02-28T08:38:53;101082.97;;;23.51;28.25
41513;BME280;27244;59.940;30.280;2023-02-28T08:41:22;101083.31;;;23.53;28.17
41513;BME280;27244;59.940;30.280;2023-02-28T08:43:49;101080.75;;;23.59;28.16
41513;BME280;27244;59.940;30.280;2023-02-28T08:46:16;101095.63;;;23.59;27.97
41513;BME280;27244;59.940;30.280;2023-02-28T08:48:43;101087.63;;;23.58;28.19
41513;BME280;27244;59.940;30.280;2023-02-28T08:51:12;101082.81;;;23.58;28.19
41513;BME280;27244;59.940;30.280;2023-02-28T08:53:41;101094.41;;;23.60;28.18
41513;BME280;27244;59.940;30.280;2023-02-28T08:56:10;101083.56;;;23.59;28.11
41513;BME280;27244;59.940;30.280;2023-02-28T08:58:39;101090.00;;;23.59;28.25
41513;BME280;27244;59.940;30.280;2023-02-28T09:01:10;101078.00;;;23.55;28.21
41513;BME280;27244;59.940;30.280;2023-02-28T09:03:37;101100.34;;;23.66;28.16
41513;BME280;27244;59.940;30.280;2023-02-28T09:06:08;101110.44;;;23.63;28.33
41513;BME280;27244;59.940;30.280;2023-02-28T09:08:36;101107.69;;;23.60;28.28
41513;BME280;27244;59.940;30.280;2023-02-28T09:11:04;101114.13;;;23.60;28.34
41513;BME280;27244;59.940;30.280;2023-02-28T09:13:31;101124.03;;;23.68;28.39
41513;BME280;27244;59.940;30.280;2023-02-28T09:16:01;101127.91;;;23.74;28.36
41513;BME280;27244;59.940;30.280;2023-02-28T09:18:29;101120.75;;;23.70;28.32
41513;BME280;27244;59.940;30.280;2023-02-28T09:20:57;101119.91;;;23.73;28.58
41513;BME280;27244;59.940;30.280;2023-02-28T09:23:24;101103.44;;;23.71;28.72
41513;BME280;27244;59.940;30.280;2023-02-28T09:25:53;101114.63;;;23.75;28.87
41513;BME280;27244;59.940;30.280;2023-02-28T09:28:21;101101.41;;;23.72;28.91
41513;BME280;27244;59.940;30.280;2023-02-28T09:30:50;101120.09;;;23.82;28.86
41513;BME280;27244;59.940;30.280;2023-02-28T09:33:20;101111.63;;;23.82;28.79
41513;BME280;27244;59.940;30.280;2023-02-28T09:35:47;101117.19;;;23.85;28.74
41513;BME280;27244;59.940;30.280;2023-02-28T09:38:14;101106.72;;;23.86;28.87
41513;BME280;27244;59.940;30.280;2023-02-28T09:40:47;101109.13;;;23.87;28.84
41513;BME280;27244;59.940;30.280;2023-02-28T09:43:16;101119.50;;;23.90;28.80
41513;BME280;27244;59.940;30.280;2023-02-28T09:45:48;101110.59;;;23.92;28.96
41513;BME280;27244;59.940;30.280;2023-02-28T09:48:21;101111.84;;;23.91;28.86
41513;BME280;27244;59.940;30.280;2023-02-28T09:50:52;101110.19;;;23.93;28.89
41513;BME280;27244;59.940;30.280;2023-02-28T09:53:27;101104.16;;;23.91;28.97
41513;BME280;27244;59.940;30.280;2023-02-28T09:56:01;101106.13;;;23.94;28.84
41513;BME280;27244;59.940;30.280;2023-02-28T09:58:34;101097.69;;;23.94;28.95
41513;BME280;27244;59.940;30.280;2023-02-28T10:01:09;101094.88;;;23.94;28.91
41513;BME280;27244;59.940;30.280;2023-02-28T10:03:43;101105.69;;;23.96;29.03
41513;BME280;27244;59.940;30.280;2023-02-28T10:06:15;101125.47;;;23.92;28.85
41513;BME280;27244;59.940;30.280;2023-02-28T10:08:50;101121.44;;;23.93;28.97
41513;BME280;27244;59.940;30.280;2023-02-28T10:11:22;101118.25;;;23.91;29.25
41513;BME280;27244;59.940;30.280;2023-02-28T10:13:53;101122.09;;;23.81;29.14
41513;BME280;27244;59.940;30.280;2023-02-28T10:16:28;101116.84;;;23.83;29.42
41513;BME280;27244;59.940;30.280;2023-02-28T10:19:02;101140.59;;;23.82;29.42
41513;BME280;27244;59.940;30.280;2023-02-28T10:21:34;101138.28;;;23.77;29.46
41513;BME280;27244;59.940;30.280;2023-02-28T10:24:04;101133.53;;;23.74;29.54
41513;BME280;27244;59.940;30.280;2023-02-28T10:26:37;101141.97;;;23.74;29.58
41513;BME280;27244;59.940;30.280;2023-02-28T10:29:04;101139.25;;;23.71;29.65
41513;BME280;27244;59.940;30.280;2023-02-28T10:31:31;101138.44;;;23.70;29.74
41513;BME280;27244;59.940;30.280;2023-02-28T10:34:00;101150.25;;;23.65;29.61
41513;BME280;27244;59.940;30.280;2023-02-28T10:36:29;101138.09;;;23.68;29.67
41513;BME280;27244;59.940;30.280;2023-02-28T10:38:55;101157.81;;;23.68;29.68
41513;BME280;27244;59.940;30.280;2023-02-28T10:41:32;101153.84;;;23.66;29.51
41513;BME280;27244;59.940;30.280;2023-02-28T10:44:18;101155.72;;;23.72;29.41
41513;BME280;27244;59.940;30.280;2023-02-28T10:46:47;101158.69;;;23.65;29.75
41513;BME280;27244;59.940;30.280;2023-02-28T10:49:19;101159.84;;;23.68;29.70
41513;BME280;27244;59.940;30.280;2023-02-28T10:51:54;101157.81;;;23.68;29.63
41513;BME280;27244;59.940;30.280;2023-02-28T10:54:24;101149.00;;;23.66;29.60
41513;BME280;27244;59.940;30.280;2023-02-28T10:57:14;101150.16;;;23.69;29.46
41513;BME280;27244;59.940;30.280;2023-02-28T10:59:43;101151.88;;;23.63;29.64
41513;BME280;27244;59.940;30.280;2023-02-28T11:02:32;101159.75;;;23.71;29.42
41513;BME280;27244;59.940;30.280;2023-02-28T11:05:01;101153.47;;;23.64;29.63
41513;BME280;27244;59.940;30.280;2023-02-28T11:07:28;101146.41;;;23.56;29.65
41513;BME280;27244;59.940;30.280;2023-02-28T11:09:57;101149.13;;;23.59;29.58
41513;BME280;27244;59.940;30.280;2023-02-28T11:12:26;101145.53;;;23.59;29.70
41513;BME280;27244;59.940;30.280;2023-02-28T11:14:57;101157.50;;;23.63;29.78
41513;BME280;27244;59.940;30.280;2023-02-28T11:17:27;101153.47;;;23.64;29.55
41513;BME280;27244;59.940;30.280;2023-02-28T11:19:56;101156.75;;;23.62;29.68
41513;BME280;27244;59.940;30.280;2023-02-28T11:22:28;101153.97;;;23.59;29.73
41513;BME280;27244;59.940;30.280;2023-02-28T11:24:58;101161.13;;;23.63;29.67
41513;BME280;27244;59.940;30.280;2023-02-28T11:27:44;101156.59;;;23.69;29.50
41513;BME280;27244;59.940;30.280;2023-02-28T11:30:28;101145.81;;;23.64;29.52
41513;BME280;27244;59.940;30.280;2023-02-28T11:32:57;101153.94;;;23.62;29.76
41513;BME280;27244;59.940;30.280;2023-02-28T11:35:27;101146.69;;;23.61;29.66
41513;BME280;27244;59.940;30.280;2023-02-28T11:37:57;101155.56;;;23.60;29.44
41513;BME280;27244;59.940;30.280;2023-02-28T11:40:30;101157.97;;;23.61;29.73
41513;BME280;27244;59.940;30.280;2023-02-28T11:43:08;101149.88;;;23.63;29.70
41513;BME280;27244;59.940;30.280;2023-02-28T11:45:58;101164.66;;;23.67;29.64
41513;BME280;27244;59.940;30.280;2023-02-28T11:48:32;101160.78;;;23.61;29.62
41513;BME280;27244;59.940;30.280;2023-02-28T11:51:11;101161.94;;;23.64;29.59
41513;BME280;27244;59.940;30.280;2023-02-28T11:53:51;101162.31;;;23.66;29.49
41513;BME280;27244;59.940;30.280;2023-02-28T11:56:26;101151.47;;;23.64;29.58
41513;BME280;27244;59.940;30.280;2023-02-28T12:02:05;101157.81;;;23.68;29.46
41513;BME280;27244;59.940;30.280;2023-02-28T12:04:45;101156.66;;;23.66;29.58
41513;BME280;27244;59.940;30.280;2023-02-28T12:07:19;101156.66;;;23.66;29.61
41513;BME280;27244;59.940;30.280;2023-02-28T12:10:01;101145.41;;;23.66;29.56
41513;BME280;27244;59.940;30.280;2023-02-28T12:12:40;101161.50;;;23.65;29.61
41513;BME280;27244;59.940;30.280;2023-02-28T12:15:23;101159.84;;;23.68;29.54
41513;BME280;27244;59.940;30.280;2023-02-28T12:18:03;101156.66;;;23.66;29.54
41513;BME280;27244;59.940;30.280;2023-02-28T12:20:37;101174.34;;;23.66;29.42
41513;BME280;27244;59.940;30.280;2023-02-28T12:23:23;101173.84;;;23.71;29.44
41513;BME280;27244;59.940;30.280;2023-02-28T12:26:02;101184.38;;;23.67;29.41
41513;BME280;27244;59.940;30.280;2023-02-28T12:28:40;101167.50;;;23.67;29.62
41513;BME280;27244;59.940;30.280;2023-02-28T12:31:11;101172.78;;;23.65;29.52
41513;BME280;27244;59.940;30.280;2023-02-28T12:33:45;101168.78;;;23.63;29.57
41513;BME280;27244;59.940;30.280;2023-02-28T12:36:14;101175.13;;;23.67;29.61
41513;BME280;27244;59.940;30.280;2023-02-28T12:38:47;101177.94;;;23.67;29.56
41513;BME280;27244;59.940;30.280;2023-02-28T12:41:22;101147.28;;;23.52;29.36
41513;BME280;27244;59.940;30.280;2023-02-28T12:44:07;101165.47;;;23.68;29.51
41513;BME280;27244;59.940;30.280;2023-02-28T12:46:38;101163.88;;;23.67;29.45
41513;BME280;27244;59.940;30.280;2023-02-28T12:49:12;101168.28;;;23.68;29.54
41513;BME280;27244;59.940;30.280;2023-02-28T12:51:40;101179.97;;;23.66;29.61
41513;BME280;27244;59.940;30.280;2023-02-28T12:54:14;101185.53;;;23.70;29.47
41513;BME280;27244;59.940;30.280;2023-02-28T12:56:49;101179.13;;;23.69;29.43
41513;BME280;27244;59.940;30.280;2023-02-28T12:59:25;101173.50;;;23.69;29.57
41513;BME280;27244;59.940;30.280;2023-02-28T13:05:39;101189.44;;;23.76;29.41
41513;BME280;27244;59.940;30.280;2023-02-28T13:08:24;101174.19;;;23.73;29.32